Bampton, United Kingdom
Current Conditions -  °F | °C
As of 12:50 PM on Monday 20 Oct 2014 (Local Time) from EGVN Reporting Station
Scattered Clouds Scattered Clouds  
Wind Chill: 61°   Ceiling: Unl
Heat Index: 61°   Visibility: 6mi
Dew Point: 50°   Wind: 10mph
Humidity: 68%   Direction: 230°SW
Pressure: 29.97"   Gusts: NA
Location:  51.73°N, 1.55°W
Report Text: EGVN 201150Z 23009KT 9999 FEW023 SCT130 16/10 Q1015 BLU NOSIG
Loading
Personal Weather Stations






























Interactive Weather Map
Tropical Storm Tracking
New forecast layout! Learn more

10-Day Weather Forecast

Advertisements
Track Severe Weather on mobile